createdAt,value
2018-01-13T00:00:49.389Z,74.50
2018-01-13T00:05:52.053Z,67.77
2018-01-13T00:10:54.712Z,64.60
2018-01-13T00:15:57.942Z,59.00
2018-01-13T00:20:59.489Z,67.67
2018-01-13T00:26:01.796Z,59.40
2018-01-13T00:31:03.374Z,54.00
2018-01-13T00:36:05.642Z,57.57
2018-01-13T00:41:07.272Z,64.57
2018-01-13T00:46:08.819Z,65.83
2018-01-13T00:51:10.384Z,64.70
2018-01-13T00:56:11.984Z,71.27
2018-01-13T01:01:13.536Z,56.63
2018-01-13T01:06:15.334Z,63.33
2018-01-13T01:11:16.859Z,60.60
2018-01-13T01:16:18.420Z,60.37
2018-01-13T01:21:20.078Z,57.00
2018-01-13T01:26:21.660Z,61.10
2018-01-13T01:31:23.189Z,61.20
2018-01-13T01:36:24.885Z,63.90
2018-01-13T01:41:26.499Z,55.90
2018-01-13T01:46:27.996Z,51.87
2018-01-13T01:51:30.265Z,59.27
2018-01-13T01:56:31.873Z,56.20
2018-01-13T02:01:33.446Z,53.77
2018-01-13T02:06:35.258Z,54.70
2018-01-13T02:11:36.799Z,59.30
2018-01-13T02:16:38.381Z,60.73
2018-01-13T02:21:39.909Z,54.03
2018-01-13T02:26:41.438Z,54.13
2018-01-13T02:31:42.984Z,52.70
2018-01-13T02:36:44.503Z,53.70
2018-01-13T02:41:46.748Z,59.93
2018-01-13T02:46:48.318Z,52.03
2018-01-13T02:51:49.858Z,58.53
2018-01-13T02:56:51.384Z,61.30
2018-01-13T03:01:53.636Z,64.00
2018-01-13T03:06:55.206Z,57.97
2018-01-13T03:11:56.747Z,61.20
2018-01-13T03:16:58.255Z,55.23
2018-01-13T03:21:59.800Z,52.97
2018-01-13T03:27:01.350Z,54.80
2018-01-13T03:32:02.916Z,54.90
2018-01-13T03:37:04.447Z,61.30
2018-01-13T03:42:06.709Z,50.80
2018-01-13T03:47:08.302Z,73.03
2018-01-13T03:52:10.612Z,56.07
2018-01-13T03:57:12.178Z,63.03
2018-01-13T04:02:13.726Z,50.77
2018-01-13T04:07:16.014Z,57.43
2018-01-13T04:12:18.325Z,59.93
2018-01-13T04:17:19.849Z,58.83
2018-01-13T04:22:22.189Z,50.07
2018-01-13T04:27:23.692Z,58.23
2018-01-13T04:32:25.207Z,49.73
2018-01-13T04:37:26.696Z,51.87
2018-01-13T04:42:28.292Z,50.90
2018-01-13T04:47:29.886Z,62.93
2018-01-13T04:52:31.435Z,39.63
2018-01-13T04:57:32.943Z,42.47
2018-01-13T05:02:35.152Z,48.90
2018-01-13T05:07:36.767Z,52.47
2018-01-13T05:12:38.326Z,40.00
2018-01-13T05:17:39.848Z,52.40
2018-01-13T05:22:41.427Z,61.80
2018-01-13T05:27:43.032Z,49.07
2018-01-13T05:32:44.572Z,47.00
2018-01-13T05:37:46.195Z,47.43
2018-01-13T05:42:48.459Z,52.67
2018-01-13T05:47:50.037Z,50.93
2018-01-13T05:52:51.612Z,50.10
2018-01-13T05:57:53.851Z,45.00
2018-01-13T06:02:55.364Z,47.57
2018-01-13T06:07:57.664Z,43.43
2018-01-13T06:12:59.232Z,43.63
2018-01-13T06:18:00.852Z,53.53
2018-01-13T06:23:02.412Z,47.43
2018-01-13T06:28:03.938Z,45.17
2018-01-13T06:33:05.481Z,52.57
2018-01-13T06:38:07.764Z,52.87
2018-01-13T06:43:10.021Z,53.33
2018-01-13T06:48:11.605Z,54.13
2018-01-13T06:53:13.160Z,55.90
2018-01-13T06:58:14.711Z,52.47
2018-01-13T07:03:16.221Z,47.63
2018-01-13T07:08:18.576Z,48.27
2018-01-13T07:13:20.105Z,48.83
2018-01-13T07:18:21.708Z,49.27
2018-01-13T07:23:23.275Z,43.30
2018-01-13T07:28:24.811Z,48.33
2018-01-13T07:33:26.340Z,44.73
2018-01-13T07:38:27.860Z,53.43
2018-01-13T07:43:29.430Z,51.47
2018-01-13T07:48:30.939Z,54.80
2018-01-13T07:53:32.501Z,45.50
2018-01-13T07:58:34.055Z,43.70
2018-01-13T08:03:35.592Z,54.00
2018-01-13T08:08:37.140Z,44.80
2018-01-13T08:13:39.416Z,39.80
2018-01-13T08:18:41.666Z,65.60
2018-01-13T08:23:43.337Z,54.43
2018-01-13T08:28:44.969Z,66.53
2018-01-13T08:33:46.509Z,56.43
2018-01-13T08:38:48.815Z,46.40
2018-01-13T08:43:50.352Z,42.30
2018-01-13T08:48:52.709Z,37.57
2018-01-13T08:53:54.203Z,51.53
2018-01-13T08:58:55.874Z,55.83
2018-01-13T09:03:57.425Z,57.13
2018-01-13T09:08:58.973Z,49.13
2018-01-13T09:14:00.564Z,61.97
2018-01-13T09:19:02.197Z,53.70
2018-01-13T09:24:03.759Z,57.40
2018-01-13T09:29:05.312Z,64.80
2018-01-13T09:34:06.871Z,60.13
2018-01-13T09:39:08.488Z,56.90
2018-01-13T09:44:09.993Z,53.43
2018-01-13T09:49:12.283Z,57.77
2018-01-13T09:54:14.616Z,55.70
2018-01-13T09:59:16.157Z,57.50
2018-01-13T10:04:17.824Z,59.20
2018-01-13T10:09:19.350Z,55.17
2018-01-13T10:14:20.874Z,45.50
2018-01-13T10:19:22.483Z,53.00
2018-01-13T10:24:24.038Z,50.70
2018-01-13T10:29:25.609Z,52.60
2018-01-13T10:34:27.170Z,56.00
2018-01-13T10:39:28.731Z,43.20
2018-01-13T10:44:30.293Z,52.07
2018-01-13T10:49:31.930Z,53.13
2018-01-13T10:54:34.206Z,43.90
2018-01-13T10:59:35.785Z,44.93
2018-01-13T11:04:38.030Z,46.37
2018-01-13T11:09:40.384Z,49.30
2018-01-13T11:14:41.884Z,44.23
2018-01-13T11:19:43.443Z,40.13
2018-01-13T11:24:45.006Z,46.60
2018-01-13T11:29:46.538Z,46.87
2018-01-13T11:34:48.088Z,40.47
2018-01-13T11:39:49.691Z,36.37
2018-01-13T11:44:51.324Z,41.80
2018-01-13T11:49:52.869Z,38.73
2018-01-13T11:54:54.439Z,36.23
2018-01-13T11:59:56.020Z,36.53
2018-01-13T12:04:57.519Z,40.97
2018-01-13T12:09:59.109Z,47.70
2018-01-13T12:15:00.608Z,43.67
2018-01-13T12:20:02.209Z,38.40
2018-01-13T12:25:04.502Z,41.90
2018-01-13T12:30:06.803Z,44.70
2018-01-13T12:35:08.328Z,40.53
2018-01-13T12:40:09.862Z,34.93
2018-01-13T12:45:11.399Z,37.90
2018-01-13T12:50:12.952Z,30.53
2018-01-13T12:55:14.529Z,35.03
2018-01-13T13:00:16.040Z,32.13
2018-01-13T13:05:17.629Z,31.00
2018-01-13T13:10:19.257Z,34.47
2018-01-13T13:15:20.785Z,38.03
2018-01-13T13:20:22.379Z,42.70
2018-01-13T13:25:23.916Z,39.07
2018-01-13T13:30:25.514Z,38.23
2018-01-13T13:35:27.132Z,43.40
2018-01-13T13:40:28.681Z,40.40
2018-01-13T13:45:30.233Z,40.27
2018-01-13T13:50:31.797Z,41.30
2018-01-13T13:55:33.594Z,44.00
2018-01-13T14:00:35.146Z,40.07
2018-01-13T14:05:36.699Z,51.87
2018-01-13T14:10:38.294Z,47.33
2018-01-13T14:15:39.856Z,54.27
2018-01-13T14:20:41.464Z,53.47
2018-01-13T14:25:43.075Z,50.60
2018-01-13T14:30:44.595Z,40.13
2018-01-13T14:35:46.191Z,54.53
2018-01-13T14:40:48.485Z,48.60
2018-01-13T14:45:50.795Z,52.07
2018-01-13T14:50:52.346Z,54.90
2018-01-13T14:55:55.377Z,35.97
2018-01-13T15:00:56.961Z,39.00
2018-01-13T15:05:58.576Z,33.63
2018-01-13T15:11:00.913Z,31.07
2018-01-13T15:16:02.529Z,28.27
2018-01-13T15:21:04.901Z,27.90
2018-01-13T15:26:06.432Z,25.67
2018-01-13T15:31:08.063Z,32.60
2018-01-13T15:36:09.565Z,45.10
2018-01-13T15:41:11.153Z,25.17
2018-01-13T15:46:12.828Z,30.60
2018-01-13T15:51:14.364Z,30.03
2018-01-13T15:56:15.867Z,30.93
2018-01-13T16:01:17.455Z,30.93
2018-01-13T16:06:19.030Z,27.37
2018-01-13T16:11:20.652Z,42.03
2018-01-13T16:16:22.392Z,31.47
2018-01-13T16:21:24.031Z,31.83
2018-01-13T16:26:25.579Z,30.37
2018-01-13T16:31:27.289Z,28.77
2018-01-13T16:36:29.660Z,29.73
2018-01-13T16:41:31.287Z,72.53
2018-01-13T16:46:32.900Z,30.40
2018-01-13T16:51:34.448Z,31.80
2018-01-13T17:02:35.401Z,32.23
2018-01-13T17:12:37.737Z,36.67
2018-01-13T17:22:39.366Z,31.27
2018-01-13T17:32:40.990Z,32.67
2018-01-13T17:42:42.649Z,36.30
2018-01-13T17:52:44.297Z,37.13
2018-01-13T18:02:45.939Z,43.23
2018-01-13T18:12:48.275Z,37.97
2018-01-13T18:22:49.835Z,32.20
2018-01-13T18:32:51.313Z,39.20
2018-01-13T18:42:52.850Z,40.60
2018-01-13T18:52:55.131Z,41.63
2018-01-13T19:02:56.719Z,37.10
2018-01-13T19:12:58.330Z,47.30
2018-01-13T19:23:00.103Z,43.87
2018-01-13T19:33:01.709Z,46.43
2018-01-13T19:43:03.315Z,47.80
2018-01-13T19:53:04.892Z,38.73
2018-01-13T20:03:06.445Z,39.30
2018-01-13T20:13:08.021Z,41.43
2018-01-13T20:23:09.580Z,37.17
2018-01-13T20:33:12.049Z,36.13
2018-01-13T20:43:14.484Z,35.83
2018-01-13T20:53:16.067Z,29.80
2018-01-13T21:03:17.684Z,31.93
2018-01-13T21:13:19.340Z,38.53
2018-01-13T21:23:21.009Z,32.77
2018-01-13T21:33:22.703Z,29.17
2018-01-13T21:43:24.309Z,31.73
2018-01-13T21:53:25.897Z,30.73
2018-01-13T22:03:27.459Z,34.23
2018-01-13T22:13:29.050Z,35.37
2018-01-13T22:23:30.658Z,32.07
2018-01-13T22:33:32.279Z,31.93
2018-01-13T22:43:33.961Z,50.80
2018-01-13T22:53:35.448Z,34.23
2018-01-13T23:03:37.040Z,39.20
2018-01-13T23:13:39.338Z,30.83
2018-01-13T23:23:40.877Z,33.60
2018-01-13T23:33:42.476Z,31.53
2018-01-13T23:43:44.032Z,39.17
2018-01-13T23:53:45.671Z,37.53
